sensor_id;sensor_type;location;lat;lon;timestamp;pressure;altitude;pressure_sealevel;temperature;humidity
63654;BME280;49809;47.418;19.080;2023-03-15T00:00:26;99272.28;;;9.05;90.67
63654;BME280;49809;47.418;19.080;2023-03-15T00:03:43;99274.38;;;9.03;89.47
63654;BME280;49809;47.418;19.080;2023-03-15T00:07:10;99284.41;;;9.01;89.83
63654;BME280;49809;47.418;19.080;2023-03-15T00:10:45;99288.38;;;8.98;89.67
63654;BME280;49809;47.418;19.080;2023-03-15T00:14:15;99291.00;;;8.98;89.59
63654;BME280;49809;47.418;19.080;2023-03-15T00:17:44;99295.25;;;8.99;89.19
63654;BME280;49809;47.418;19.080;2023-03-15T00:21:12;99299.97;;;9.07;87.86
63654;BME280;49809;47.418;19.080;2023-03-15T00:24:31;99284.94;;;9.03;87.82
63654;BME280;49809;47.418;19.080;2023-03-15T00:27:51;99287.56;;;9.08;87.11
63654;BME280;49809;47.418;19.080;2023-03-15T00:31:22;99283.09;;;9.08;87.37
63654;BME280;49809;47.418;19.080;2023-03-15T00:34:41;99296.28;;;9.13;85.47
63654;BME280;49809;47.418;19.080;2023-03-15T00:38:04;99286.78;;;9.07;86.45
63654;BME280;49809;47.418;19.080;2023-03-15T00:41:22;99280.72;;;9.07;84.93
63654;BME280;49809;47.418;19.080;2023-03-15T00:44:57;99288.38;;;9.08;85.06
63654;BME280;49809;47.418;19.080;2023-03-15T00:48:23;99278.31;;;9.05;84.64
63654;BME280;49809;47.418;19.080;2023-03-15T00:51:39;99279.41;;;9.04;84.58
63654;BME280;49809;47.418;19.080;2023-03-15T00:55:09;99280.72;;;8.97;84.86
63654;BME280;49809;47.418;19.080;2023-03-15T00:58:38;99270.69;;;8.94;86.11
63654;BME280;49809;47.418;19.080;2023-03-15T01:02:04;99264.63;;;8.88;85.63
63654;BME280;49809;47.418;19.080;2023-03-15T01:05:30;99272.53;;;8.88;84.48
63654;BME280;49809;47.418;19.080;2023-03-15T01:08:58;99264.09;;;8.91;84.25
63654;BME280;49809;47.418;19.080;2023-03-15T01:12:33;99269.37;;;8.81;83.99
63654;BME280;49809;47.418;19.080;2023-03-15T01:15:50;99294.19;;;8.85;83.78
63654;BME280;49809;47.418;19.080;2023-03-15T01:19:19;99279.91;;;8.86;81.47
63654;BME280;49809;47.418;19.080;2023-03-15T01:22:52;99290.47;;;8.86;80.82
63654;BME280;49809;47.418;19.080;2023-03-15T01:26:17;99273.34;;;8.79;81.03
63654;BME280;49809;47.418;19.080;2023-03-15T01:29:55;99277.28;;;8.81;81.38
63654;BME280;49809;47.418;19.080;2023-03-15T01:33:23;99273.34;;;8.79;80.83
63654;BME280;49809;47.418;19.080;2023-03-15T01:36:43;99277.81;;;8.78;80.07
63654;BME280;49809;47.418;19.080;2023-03-15T01:40:18;99277.31;;;8.76;79.23
63654;BME280;49809;47.418;19.080;2023-03-15T01:43:47;99286.28;;;8.70;78.62
63654;BME280;49809;47.418;19.080;2023-03-15T01:47:26;99280.44;;;8.63;79.58
63654;BME280;49809;47.418;19.080;2023-03-15T01:50:54;99273.59;;;8.67;78.77
63654;BME280;49809;47.418;19.080;2023-03-15T01:54:39;99278.59;;;8.48;80.00
63654;BME280;49809;47.418;19.080;2023-03-15T01:58:00;99265.66;;;8.57;78.69
63654;BME280;49809;47.418;19.080;2023-03-15T02:01:26;99265.69;;;8.47;80.02
63654;BME280;49809;47.418;19.080;2023-03-15T02:04:57;99252.50;;;8.42;79.25
63654;BME280;49809;47.418;19.080;2023-03-15T02:08:19;99244.56;;;8.42;79.07
63654;BME280;49809;47.418;19.080;2023-03-15T02:11:47;99253.53;;;8.36;79.31
63654;BME280;49809;47.418;19.080;2023-03-15T02:15:15;99255.91;;;8.47;79.45
63654;BME280;49809;47.418;19.080;2023-03-15T02:18:45;99249.31;;;8.40;80.32
63654;BME280;49809;47.418;19.080;2023-03-15T02:29:29;99256.69;;;8.33;80.41
63654;BME280;49809;47.418;19.080;2023-03-15T02:32:47;99252.16;;;8.28;79.47
63654;BME280;49809;47.418;19.080;2023-03-15T02:36:20;99269.09;;;8.32;78.92
63654;BME280;49809;47.418;19.080;2023-03-15T02:39:47;99267.22;;;8.27;79.32
63654;BME280;49809;47.418;19.080;2023-03-15T02:43:27;99253.22;;;8.27;79.49
63654;BME280;49809;47.418;19.080;2023-03-15T02:46:47;99281.12;;;8.23;80.11
63654;BME280;49809;47.418;19.080;2023-03-15T02:50:10;99268.75;;;8.28;80.30
63654;BME280;49809;47.418;19.080;2023-03-15T02:53:36;99279.28;;;8.18;80.47
63654;BME280;49809;47.418;19.080;2023-03-15T02:57:10;99285.16;;;8.31;80.25
63654;BME280;49809;47.418;19.080;2023-03-15T03:00:45;99287.50;;;8.27;80.40
63654;BME280;49809;47.418;19.080;2023-03-15T03:04:11;99287.22;;;8.28;80.49
63654;BME280;49809;47.418;19.080;2023-03-15T03:07:31;99282.22;;;8.22;80.56
63654;BME280;49809;47.418;19.080;2023-03-15T03:10:59;99274.81;;;8.24;81.22
63654;BME280;49809;47.418;19.080;2023-03-15T03:14:26;99274.63;;;8.31;80.50
63654;BME280;49809;47.418;19.080;2023-03-15T03:17:55;99270.88;;;8.26;80.41
63654;BME280;49809;47.418;19.080;2023-03-15T03:21:12;99285.13;;;8.25;80.71
63654;BME280;49809;47.418;19.080;2023-03-15T03:24:30;99281.94;;;8.23;81.12
63654;BME280;49809;47.418;19.080;2023-03-15T03:28:18;99289.81;;;8.18;80.69
63654;BME280;49809;47.418;19.080;2023-03-15T03:31:47;99291.47;;;8.29;78.04
63654;BME280;49809;47.418;19.080;2023-03-15T03:35:01;99284.31;;;8.20;77.42
63654;BME280;49809;47.418;19.080;2023-03-15T03:38:36;99277.75;;;8.27;76.91
63654;BME280;49809;47.418;19.080;2023-03-15T03:42:19;99284.37;;;8.35;75.62
63654;BME280;49809;47.418;19.080;2023-03-15T03:45:36;99283.03;;;8.27;75.75
63654;BME280;49809;47.418;19.080;2023-03-15T03:48:58;99273.50;;;8.21;75.96
63654;BME280;49809;47.418;19.080;2023-03-15T03:52:16;99269.28;;;8.15;76.34
63654;BME280;49809;47.418;19.080;2023-03-15T03:55:50;99272.16;;;8.19;75.41
63654;BME280;49809;47.418;19.080;2023-03-15T03:59:07;99265.31;;;8.08;75.66
63654;BME280;49809;47.418;19.080;2023-03-15T04:02:36;99267.16;;;8.07;76.27
63654;BME280;49809;47.418;19.080;2023-03-15T04:06:10;99277.19;;;8.15;74.82
63654;BME280;49809;47.418;19.080;2023-03-15T04:09:40;99280.84;;;8.09;75.68
63654;BME280;49809;47.418;19.080;2023-03-15T04:13:21;99280.81;;;8.04;75.98
63654;BME280;49809;47.418;19.080;2023-03-15T04:16:49;99296.09;;;7.97;76.61
63654;BME280;49809;47.418;19.080;2023-03-15T04:20:21;99296.91;;;8.03;75.79
63654;BME280;49809;47.418;19.080;2023-03-15T04:23:50;99303.00;;;8.03;75.73
63654;BME280;49809;47.418;19.080;2023-03-15T04:27:20;99312.72;;;8.03;75.84
63654;BME280;49809;47.418;19.080;2023-03-15T04:30:37;99305.06;;;7.96;75.37
63654;BME280;49809;47.418;19.080;2023-03-15T04:33:55;99313.50;;;7.93;75.45
63654;BME280;49809;47.418;19.080;2023-03-15T04:37:31;99310.62;;;8.05;74.96
63654;BME280;49809;47.418;19.080;2023-03-15T04:41:12;99316.94;;;8.04;75.45
63654;BME280;49809;47.418;19.080;2023-03-15T04:44:47;99325.09;;;7.97;75.26
63654;BME280;49809;47.418;19.080;2023-03-15T04:48:17;99337.69;;;7.90;74.61
63654;BME280;49809;47.418;19.080;2023-03-15T04:51:34;99352.34;;;7.71;75.34
63654;BME280;49809;47.418;19.080;2023-03-15T04:55:01;99343.41;;;7.72;74.46
63654;BME280;49809;47.418;19.080;2023-03-15T04:58:30;99342.12;;;7.79;74.04
63654;BME280;49809;47.418;19.080;2023-03-15T05:02:06;99348.94;;;7.75;73.08
63654;BME280;49809;47.418;19.080;2023-03-15T05:05:32;99347.53;;;7.58;73.83
63654;BME280;49809;47.418;19.080;2023-03-15T05:09:00;99351.69;;;7.49;73.73
63654;BME280;49809;47.418;19.080;2023-03-15T05:12:35;99343.22;;;7.41;73.80
63654;BME280;49809;47.418;19.080;2023-03-15T05:16:13;99354.25;;;7.38;73.14
63654;BME280;49809;47.418;19.080;2023-03-15T05:19:48;99355.81;;;7.34;73.13
63654;BME280;49809;47.418;19.080;2023-03-15T05:23:23;99358.44;;;7.34;73.98
63654;BME280;49809;47.418;19.080;2023-03-15T05:27:00;99356.69;;;7.13;74.10
63654;BME280;49809;47.418;19.080;2023-03-15T05:30:28;99358.00;;;7.11;74.74
63654;BME280;49809;47.418;19.080;2023-03-15T05:33:57;99353.22;;;7.08;74.66
63654;BME280;49809;47.418;19.080;2023-03-15T05:37:16;99351.34;;;7.03;74.52
63654;BME280;49809;47.418;19.080;2023-03-15T05:40:59;99354.53;;;7.05;75.35
63654;BME280;49809;47.418;19.080;2023-03-15T05:44:30;99350.50;;;6.97;75.16
63654;BME280;49809;47.418;19.080;2023-03-15T05:48:06;99352.06;;;6.93;75.82
63654;BME280;49809;47.418;19.080;2023-03-15T05:51:39;99353.91;;;6.93;76.07
63654;BME280;49809;47.418;19.080;2023-03-15T05:54:53;99346.56;;;6.95;76.21
63654;BME280;49809;47.418;19.080;2023-03-15T05:58:12;99355.72;;;6.92;76.67
63654;BME280;49809;47.418;19.080;2023-03-15T06:01:43;99358.53;;;6.81;76.99
63654;BME280;49809;47.418;19.080;2023-03-15T06:05:26;99363.91;;;6.91;77.04
63654;BME280;49809;47.418;19.080;2023-03-15T06:08:45;99373.66;;;6.69;78.21
63654;BME280;49809;47.418;19.080;2023-03-15T06:12:02;99373.38;;;6.92;77.05
63654;BME280;49809;47.418;19.080;2023-03-15T06:15:32;99376.72;;;6.82;77.66
63654;BME280;49809;47.418;19.080;2023-03-15T06:18:58;99375.53;;;6.46;79.04
63654;BME280;49809;47.418;19.080;2023-03-15T06:22:25;99385.75;;;6.43;79.99
63654;BME280;49809;47.418;19.080;2023-03-15T06:25:53;99385.09;;;6.52;79.37
63654;BME280;49809;47.418;19.080;2023-03-15T06:29:30;99388.06;;;6.39;79.92
63654;BME280;49809;47.418;19.080;2023-03-15T06:33:04;99386.50;;;6.38;80.33
63654;BME280;49809;47.418;19.080;2023-03-15T06:36:36;99386.75;;;6.37;80.43
63654;BME280;49809;47.418;19.080;2023-03-15T06:39:55;99387.97;;;6.29;80.21
63654;BME280;49809;47.418;19.080;2023-03-15T06:43:22;99400.38;;;6.34;80.25
63654;BME280;49809;47.418;19.080;2023-03-15T06:46:54;99407.53;;;6.38;80.44
63654;BME280;49809;47.418;19.080;2023-03-15T06:50:26;99407.94;;;6.30;80.63
63654;BME280;49809;47.418;19.080;2023-03-15T06:53:51;99408.00;;;6.35;80.14
63654;BME280;49809;47.418;19.080;2023-03-15T06:57:21;99411.19;;;6.37;79.80
63654;BME280;49809;47.418;19.080;2023-03-15T07:00:38;99414.47;;;6.49;78.00
63654;BME280;49809;47.418;19.080;2023-03-15T07:03:55;99418.16;;;6.48;78.41
63654;BME280;49809;47.418;19.080;2023-03-15T07:07:12;99419.53;;;6.34;78.01
63654;BME280;49809;47.418;19.080;2023-03-15T07:10:30;99447.31;;;6.47;78.12
63654;BME280;49809;47.418;19.080;2023-03-15T07:13:58;99437.41;;;6.32;78.20
63654;BME280;49809;47.418;19.080;2023-03-15T07:17:27;99435.28;;;6.29;78.13
63654;BME280;49809;47.418;19.080;2023-03-15T07:21:03;99443.09;;;6.24;78.66
63654;BME280;49809;47.418;19.080;2023-03-15T07:24:18;99443.09;;;6.24;78.22
63654;BME280;49809;47.418;19.080;2023-03-15T07:27:52;99459.78;;;6.35;78.00
63654;BME280;49809;47.418;19.080;2023-03-15T07:31:10;99452.22;;;6.38;77.53
63654;BME280;49809;47.418;19.080;2023-03-15T07:34:38;99455.44;;;6.45;77.86
63654;BME280;49809;47.418;19.080;2023-03-15T07:38:07;99459.59;;;6.41;77.31
63654;BME280;49809;47.418;19.080;2023-03-15T07:41:24;99461.31;;;6.52;77.32
63654;BME280;49809;47.418;19.080;2023-03-15T07:44:50;99470.25;;;6.51;76.98
63654;BME280;49809;47.418;19.080;2023-03-15T07:48:23;99470.25;;;6.51;76.29
63654;BME280;49809;47.418;19.080;2023-03-15T07:51:50;99475.87;;;6.38;76.61
63654;BME280;49809;47.418;19.080;2023-03-15T07:55:27;99466.31;;;6.32;75.81
63654;BME280;49809;47.418;19.080;2023-03-15T07:58:59;99463.53;;;6.39;76.00
63654;BME280;49809;47.418;19.080;2023-03-15T08:02:29;99467.41;;;6.36;75.54
63654;BME280;49809;47.418;19.080;2023-03-15T08:06:01;99464.59;;;6.65;74.75
63654;BME280;49809;47.418;19.080;2023-03-15T08:09:22;99476.47;;;6.45;74.39
63654;BME280;49809;47.418;19.080;2023-03-15T08:12:52;99475.94;;;6.65;73.99
63654;BME280;49809;47.418;19.080;2023-03-15T12:18:52;99733.87;;;8.91;53.30
63654;BME280;49809;47.418;19.080;2023-03-15T12:22:16;99736.13;;;9.09;52.85
63654;BME280;49809;47.418;19.080;2023-03-15T12:25:55;99725.41;;;9.31;51.94
63654;BME280;49809;47.418;19.080;2023-03-15T12:29:26;99737.78;;;9.26;52.05
63654;BME280;49809;47.418;19.080;2023-03-15T12:33:21;99735.75;;;9.38;50.99
63654;BME280;49809;47.418;19.080;2023-03-15T12:36:47;99742.16;;;9.52;51.79
63654;BME280;49809;47.418;19.080;2023-03-15T12:44:37;99746.34;;;9.43;50.42
63654;BME280;49809;47.418;19.080;2023-03-15T12:48:18;99745.81;;;9.46;50.72
63654;BME280;49809;47.418;19.080;2023-03-15T12:51:53;99743.31;;;9.76;50.31
63654;BME280;49809;47.418;19.080;2023-03-15T12:58:36;99755.63;;;9.03;49.44
63654;BME280;49809;47.418;19.080;2023-03-15T13:01:52;99752.03;;;9.25;49.43
63654;BME280;49809;47.418;19.080;2023-03-15T13:12:54;99761.28;;;9.74;46.89
63654;BME280;49809;47.418;19.080;2023-03-15T13:16:47;99779.41;;;9.50;47.17
63654;BME280;49809;47.418;19.080;2023-03-15T13:20:39;99775.16;;;9.49;46.60
63654;BME280;49809;47.418;19.080;2023-03-15T13:24:21;99769.16;;;9.64;45.46
63654;BME280;49809;47.418;19.080;2023-03-15T13:28:08;99790.28;;;9.59;45.19
63654;BME280;49809;47.418;19.080;2023-03-15T13:31:52;99784.06;;;9.33;44.81
63654;BME280;49809;47.418;19.080;2023-03-15T13:35:45;99788.72;;;9.58;45.05
63654;BME280;49809;47.418;19.080;2023-03-15T13:39:14;99794.72;;;9.48;44.60
63654;BME280;49809;47.418;19.080;2023-03-15T13:50:21;99804.72;;;9.41;43.32
63654;BME280;49809;47.418;19.080;2023-03-15T13:53:39;99805.69;;;9.72;42.59
63654;BME280;49809;47.418;19.080;2023-03-15T13:57:20;99805.75;;;9.87;43.33
63654;BME280;49809;47.418;19.080;2023-03-15T14:00:41;99804.63;;;9.68;42.21
63654;BME280;49809;47.418;19.080;2023-03-15T14:04:17;99811.91;;;9.51;41.97
63654;BME280;49809;47.418;19.080;2023-03-15T14:08:13;99812.88;;;9.40;42.13
63654;BME280;49809;47.418;19.080;2023-03-15T14:11:35;99825.91;;;9.09;42.44
63654;BME280;49809;47.418;19.080;2023-03-15T14:14:58;99826.06;;;8.98;42.25
63654;BME280;49809;47.418;19.080;2023-03-15T14:18:23;99825.34;;;9.07;42.52
63654;BME280;49809;47.418;19.080;2023-03-15T14:21:52;99826.34;;;9.01;42.38
63654;BME280;49809;47.418;19.080;2023-03-15T14:25:27;99847.69;;;8.95;41.87
63654;BME280;49809;47.418;19.080;2023-03-15T14:28:58;99851.28;;;8.57;42.61
63654;BME280;49809;47.418;19.080;2023-03-15T14:32:34;99853.22;;;8.40;42.60
63654;BME280;49809;47.418;19.080;2023-03-15T14:36:05;99865.16;;;8.25;42.37
63654;BME280;49809;47.418;19.080;2023-03-15T14:42:50;99869.50;;;8.15;42.43
63654;BME280;49809;47.418;19.080;2023-03-15T14:46:16;99861.03;;;7.91;42.98
63654;BME280;49809;47.418;19.080;2023-03-15T14:49:26;99874.84;;;7.98;42.74
63654;BME280;49809;47.418;19.080;2023-03-15T14:52:45;99881.63;;;7.94;43.30
63654;BME280;49809;47.418;19.080;2023-03-15T14:56:12;99881.81;;;7.87;43.12
63654;BME280;49809;47.418;19.080;2023-03-15T14:59:30;99908.91;;;7.83;43.36
63654;BME280;49809;47.418;19.080;2023-03-15T15:03:17;99881.69;;;7.77;43.57
63654;BME280;49809;47.418;19.080;2023-03-15T15:14:25;99910.19;;;7.64;43.53
63654;BME280;49809;47.418;19.080;2023-03-15T15:17:52;99923.28;;;7.59;43.51
63654;BME280;49809;47.418;19.080;2023-03-15T15:21:12;99927.44;;;7.55;43.20
63654;BME280;49809;47.418;19.080;2023-03-15T15:39:50;99954.56;;;7.38;42.73
63654;BME280;49809;47.418;19.080;2023-03-15T15:43:20;99958.72;;;7.34;42.88
63654;BME280;49809;47.418;19.080;2023-03-15T15:46:34;99964.34;;;7.26;42.69
63654;BME280;49809;47.418;19.080;2023-03-15T15:49:52;99969.94;;;7.13;42.99
63654;BME280;49809;47.418;19.080;2023-03-15T15:53:30;99977.38;;;7.16;42.92
63654;BME280;49809;47.418;19.080;2023-03-15T16:01:08;99981.34;;;7.19;42.85
63654;BME280;49809;47.418;19.080;2023-03-15T16:04:42;99990.59;;;7.21;42.64
63654;BME280;49809;47.418;19.080;2023-03-15T16:08:00;99987.97;;;7.21;42.65
63654;BME280;49809;47.418;19.080;2023-03-15T17:40:37;100133.81;;;5.74;44.41
63654;BME280;49809;47.418;19.080;2023-03-15T17:43:52;100141.34;;;5.71;44.62
63654;BME280;49809;47.418;19.080;2023-03-15T17:47:10;100155.56;;;5.63;44.30
63654;BME280;49809;47.418;19.080;2023-03-15T17:50:46;100167.09;;;5.62;44.48
63654;BME280;49809;47.418;19.080;2023-03-15T17:54:01;100174.19;;;5.61;44.36
63654;BME280;49809;47.418;19.080;2023-03-15T17:57:27;100174.69;;;5.52;44.42
63654;BME280;49809;47.418;19.080;2023-03-15T18:00:44;100186.09;;;5.46;44.92
63654;BME280;49809;47.418;19.080;2023-03-15T18:11:34;100193.72;;;5.47;43.72
63654;BME280;49809;47.418;19.080;2023-03-15T18:15:15;100198.41;;;5.45;44.51
63654;BME280;49809;47.418;19.080;2023-03-15T18:18:53;100204.06;;;5.42;44.14
63654;BME280;49809;47.418;19.080;2023-03-15T18:22:16;100203.66;;;5.45;43.90
63654;BME280;49809;47.418;19.080;2023-03-15T18:26:05;100202.84;;;5.45;44.17
63654;BME280;49809;47.418;19.080;2023-03-15T18:29:42;100215.97;;;5.45;43.96
63654;BME280;49809;47.418;19.080;2023-03-15T18:33:19;100218.47;;;5.40;44.19
63654;BME280;49809;47.418;19.080;2023-03-15T18:36:34;100214.81;;;5.41;43.65
63654;BME280;49809;47.418;19.080;2023-03-15T18:39:50;100234.56;;;5.43;43.83
63654;BME280;49809;47.418;19.080;2023-03-15T18:43:04;100236.63;;;5.41;43.43
63654;BME280;49809;47.418;19.080;2023-03-15T18:46:28;100232.19;;;5.42;43.28
63654;BME280;49809;47.418;19.080;2023-03-15T18:49:41;100233.41;;;5.39;43.53
63654;BME280;49809;47.418;19.080;2023-03-15T18:53:16;100247.53;;;5.38;43.90
63654;BME280;49809;47.418;19.080;2023-03-15T18:56:30;100248.13;;;5.40;43.92
63654;BME280;49809;47.418;19.080;2023-03-15T18:59:39;100245.06;;;5.43;43.63
63654;BME280;49809;47.418;19.080;2023-03-15T19:02:44;100242.69;;;5.42;43.14
63654;BME280;49809;47.418;19.080;2023-03-15T19:06:22;100245.38;;;5.35;43.23
63654;BME280;49809;47.418;19.080;2023-03-15T19:10:10;100254.41;;;5.39;42.90
63654;BME280;49809;47.418;19.080;2023-03-15T19:13:57;100254.59;;;5.38;43.16
63654;BME280;49809;47.418;19.080;2023-03-15T19:17:20;100269.03;;;5.29;43.24
63654;BME280;49809;47.418;19.080;2023-03-15T19:20:47;100265.59;;;5.28;43.41
63654;BME280;49809;47.418;19.080;2023-03-15T19:24:04;100273.12;;;5.24;43.18
63654;BME280;49809;47.418;19.080;2023-03-15T19:27:12;100270.66;;;5.30;42.81
63654;BME280;49809;47.418;19.080;2023-03-15T19:30:33;100275.34;;;5.28;43.39
63654;BME280;49809;47.418;19.080;2023-03-15T19:33:58;100283.25;;;5.21;43.30
63654;BME280;49809;47.418;19.080;2023-03-15T19:37:15;100291.13;;;5.21;42.97
63654;BME280;49809;47.418;19.080;2023-03-15T19:40:53;100302.06;;;5.18;43.26
63654;BME280;49809;47.418;19.080;2023-03-15T19:44:18;100308.59;;;5.09;43.38
63654;BME280;49809;47.418;19.080;2023-03-15T19:48:18;100308.50;;;4.97;43.82
63654;BME280;49809;47.418;19.080;2023-03-15T19:51:41;100311.16;;;4.91;44.15
63654;BME280;49809;47.418;19.080;2023-03-15T19:55:21;100318.66;;;4.87;44.05
63654;BME280;49809;47.418;19.080;2023-03-15T19:58:49;100323.03;;;4.68;43.48
63654;BME280;49809;47.418;19.080;2023-03-15T20:02:28;100328.09;;;4.63;44.20
63654;BME280;49809;47.418;19.080;2023-03-15T20:06:13;100333.00;;;4.53;44.09
63654;BME280;49809;47.418;19.080;2023-03-15T20:09:55;100322.94;;;4.50;44.23
63654;BME280;49809;47.418;19.080;2023-03-15T20:13:20;100325.56;;;4.50;43.91
63654;BME280;49809;47.418;19.080;2023-03-15T20:16:58;100336.19;;;4.55;43.53
63654;BME280;49809;47.418;19.080;2023-03-15T20:20:22;100339.44;;;4.51;43.65
63654;BME280;49809;47.418;19.080;2023-03-15T20:23:42;100348.75;;;4.47;44.41
63654;BME280;49809;47.418;19.080;2023-03-15T20:27:40;100353.50;;;4.63;43.44
63654;BME280;49809;47.418;19.080;2023-03-15T20:31:23;100355.59;;;4.54;43.91
63654;BME280;49809;47.418;19.080;2023-03-15T20:34:53;100367.81;;;4.60;42.83
63654;BME280;49809;47.418;19.080;2023-03-15T20:38:19;100361.12;;;4.71;42.44
63654;BME280;49809;47.418;19.080;2023-03-15T20:42:00;100368.34;;;4.75;42.53
63654;BME280;49809;47.418;19.080;2023-03-15T20:45:14;100364.28;;;4.79;42.28
63654;BME280;49809;47.418;19.080;2023-03-15T20:48:54;100359.84;;;4.80;42.61
63654;BME280;49809;47.418;19.080;2023-03-15T20:52:09;100362.09;;;4.76;43.30
63654;BME280;49809;47.418;19.080;2023-03-15T20:55:37;100363.53;;;4.72;43.12
63654;BME280;49809;47.418;19.080;2023-03-15T20:58:54;100362.69;;;4.78;43.64
63654;BME280;49809;47.418;19.080;2023-03-15T21:02:30;100376.37;;;4.80;43.82
63654;BME280;49809;47.418;19.080;2023-03-15T21:05:44;100370.81;;;4.70;44.23
63654;BME280;49809;47.418;19.080;2023-03-15T21:09:15;100372.78;;;4.75;43.91
63654;BME280;49809;47.418;19.080;2023-03-15T21:12:29;100379.66;;;4.76;44.76
63654;BME280;49809;47.418;19.080;2023-03-15T21:16:11;100374.78;;;4.79;44.64
63654;BME280;49809;47.418;19.080;2023-03-15T21:19:15;100379.19;;;4.86;44.60
63654;BME280;49809;47.418;19.080;2023-03-15T21:22:47;100384.44;;;4.86;45.43
63654;BME280;49809;47.418;19.080;2023-03-15T21:26:05;100382.03;;;4.84;45.25
63654;BME280;49809;47.418;19.080;2023-03-15T21:29:23;100376.37;;;4.80;46.01
63654;BME280;49809;47.418;19.080;2023-03-15T21:32:55;100380.03;;;4.79;46.15
63654;BME280;49809;47.418;19.080;2023-03-15T21:36:12;100382.25;;;4.82;46.46
63654;BME280;49809;47.418;19.080;2023-03-15T21:39:29;100384.50;;;4.72;46.70
63654;BME280;49809;47.418;19.080;2023-03-15T21:42:49;100377.66;;;4.71;46.82
63654;BME280;49809;47.418;19.080;2023-03-15T21:46:33;100378.25;;;4.73;47.13
63654;BME280;49809;47.418;19.080;2023-03-15T21:49:50;100385.25;;;4.79;46.94
63654;BME280;49809;47.418;19.080;2023-03-15T21:53:24;100382.91;;;4.71;47.49
63654;BME280;49809;47.418;19.080;2023-03-15T21:56:39;100384.78;;;4.64;47.96
63654;BME280;49809;47.418;19.080;2023-03-15T22:00:22;100381.81;;;4.54;48.57
63654;BME280;49809;47.418;19.080;2023-03-15T22:03:40;100380.63;;;4.50;49.26
63654;BME280;49809;47.418;19.080;2023-03-15T22:07:20;100381.81;;;4.54;48.97
63654;BME280;49809;47.418;19.080;2023-03-15T22:10:34;100386.41;;;4.59;48.34
63654;BME280;49809;47.418;19.080;2023-03-15T22:14:08;100382.97;;;4.58;48.14
63654;BME280;49809;47.418;19.080;2023-03-15T22:17:24;100384.94;;;4.69;48.29
63654;BME280;49809;47.418;19.080;2023-03-15T22:20:54;100381.91;;;4.66;48.59
63654;BME280;49809;47.418;19.080;2023-03-15T22:24:09;100386.81;;;4.56;49.02
63654;BME280;49809;47.418;19.080;2023-03-15T22:27:37;100390.25;;;4.56;48.88
63654;BME280;49809;47.418;19.080;2023-03-15T22:30:52;100389.41;;;4.62;48.85
63654;BME280;49809;47.418;19.080;2023-03-15T22:34:18;100394.66;;;4.62;49.40
63654;BME280;49809;47.418;19.080;2023-03-15T22:37:32;100389.25;;;4.51;49.84
63654;BME280;49809;47.418;19.080;2023-03-15T22:41:06;100386.25;;;4.47;49.75
63654;BME280;49809;47.418;19.080;2023-03-15T22:44:21;100395.56;;;4.43;50.18
63654;BME280;49809;47.418;19.080;2023-03-15T22:47:49;100400.00;;;4.36;50.44
63654;BME280;49809;47.418;19.080;2023-03-15T22:51:14;100397.44;;;4.29;50.90
63654;BME280;49809;47.418;19.080;2023-03-15T22:54:33;100398.44;;;4.22;51.14
63654;BME280;49809;47.418;19.080;2023-03-15T22:57:53;100396.06;;;4.14;51.69
63654;BME280;49809;47.418;19.080;2023-03-15T23:01:22;100398.88;;;4.19;51.09
63654;BME280;49809;47.418;19.080;2023-03-15T23:04:36;100401.69;;;4.24;50.99
63654;BME280;49809;47.418;19.080;2023-03-15T23:08:17;100404.06;;;4.32;50.64
63654;BME280;49809;47.418;19.080;2023-03-15T23:11:32;100402.44;;;4.31;50.69
63654;BME280;49809;47.418;19.080;2023-03-15T23:15:00;100408.72;;;4.30;50.83
63654;BME280;49809;47.418;19.080;2023-03-15T23:18:14;100410.16;;;4.26;50.95
63654;BME280;49809;47.418;19.080;2023-03-15T23:21:45;100414.59;;;4.19;51.35
63654;BME280;49809;47.418;19.080;2023-03-15T23:25:03;100421.41;;;4.26;50.93
63654;BME280;49809;47.418;19.080;2023-03-15T23:28:32;100425.06;;;4.19;51.19
63654;BME280;49809;47.418;19.080;2023-03-15T23:32:06;100424.69;;;4.09;52.21
63654;BME280;49809;47.418;19.080;2023-03-15T23:35:40;100428.13;;;4.03;52.17
63654;BME280;49809;47.418;19.080;2023-03-15T23:38:54;100430.78;;;3.96;51.95
63654;BME280;49809;47.418;19.080;2023-03-15T23:42:22;100435.41;;;4.01;52.00
63654;BME280;49809;47.418;19.080;2023-03-15T23:45:27;100436.00;;;4.03;51.85
63654;BME280;49809;47.418;19.080;2023-03-15T23:49:08;100442.06;;;3.97;51.96
63654;BME280;49809;47.418;19.080;2023-03-15T23:52:23;100448.13;;;3.90;52.07
63654;BME280;49809;47.418;19.080;2023-03-15T23:55:51;100448.34;;;3.82;52.77
63654;BME280;49809;47.418;19.080;2023-03-15T23:59:02;100456.00;;;3.77;52.57
